sensor_id;sensor_type;location;lat;lon;timestamp;pressure;altitude;pressure_sealevel;temperature;humidity
15489;BME280;7846;48.830;9.116;2023-02-18T00:00:16;98749.78;;;16.11;58.23
15489;BME280;7846;48.830;9.116;2023-02-18T00:02:43;98751.78;;;15.28;60.40
15489;BME280;7846;48.830;9.116;2023-02-18T00:05:11;98748.84;;;15.39;60.28
15489;BME280;7846;48.830;9.116;2023-02-18T00:07:38;98745.19;;;15.32;60.54
15489;BME280;7846;48.830;9.116;2023-02-18T00:10:07;98739.53;;;15.51;60.00
15489;BME280;7846;48.830;9.116;2023-02-18T00:12:34;98734.06;;;15.53;60.00
15489;BME280;7846;48.830;9.116;2023-02-18T00:14:59;98741.88;;;15.54;60.01
15489;BME280;7846;48.830;9.116;2023-02-18T00:17:25;98741.50;;;15.49;60.26
15489;BME280;7846;48.830;9.116;2023-02-18T00:19:52;98745.50;;;15.37;60.19
15489;BME280;7846;48.830;9.116;2023-02-18T00:22:17;98743.50;;;15.31;60.68
15489;BME280;7846;48.830;9.116;2023-02-18T00:24:42;98745.50;;;15.29;60.96
15489;BME280;7846;48.830;9.116;2023-02-18T00:27:08;98749.47;;;15.49;60.34
15489;BME280;7846;48.830;9.116;2023-02-18T00:29:33;98727.25;;;15.42;60.54
15489;BME280;7846;48.830;9.116;2023-02-18T00:32:00;98755.78;;;15.40;60.68
15489;BME280;7846;48.830;9.116;2023-02-18T00:34:26;98746.50;;;15.36;60.94
15489;BME280;7846;48.830;9.116;2023-02-18T00:36:52;98738.22;;;15.39;61.02
15489;BME280;7846;48.830;9.116;2023-02-18T00:39:18;98744.34;;;15.47;60.88
15489;BME280;7846;48.830;9.116;2023-02-18T00:41:43;98722.13;;;15.48;60.62
15489;BME280;7846;48.830;9.116;2023-02-18T00:44:10;98709.84;;;15.31;60.96
15489;BME280;7846;48.830;9.116;2023-02-18T00:46:36;98715.31;;;15.13;61.53
15489;BME280;7846;48.830;9.116;2023-02-18T00:49:02;98711.97;;;15.28;61.30
15489;BME280;7846;48.830;9.116;2023-02-18T00:51:28;98707.81;;;15.00;61.65
15489;BME280;7846;48.830;9.116;2023-02-18T00:53:54;98700.69;;;15.01;61.54
15489;BME280;7846;48.830;9.116;2023-02-18T00:56:20;98691.91;;;15.49;60.87
15489;BME280;7846;48.830;9.116;2023-02-18T00:58:46;98693.59;;;15.59;60.14
15489;BME280;7846;48.830;9.116;2023-02-18T01:01:12;98693.94;;;15.47;60.71
15489;BME280;7846;48.830;9.116;2023-02-18T01:03:38;98707.06;;;15.65;60.34
15489;BME280;7846;48.830;9.116;2023-02-18T01:06:05;98685.94;;;15.64;59.56
15489;BME280;7846;48.830;9.116;2023-02-18T01:08:31;98691.44;;;15.54;60.34
15489;BME280;7846;48.830;9.116;2023-02-18T01:10:57;98696.72;;;15.46;60.55
15489;BME280;7846;48.830;9.116;2023-02-18T01:13:23;98692.91;;;14.91;62.27
15489;BME280;7846;48.830;9.116;2023-02-18T01:15:49;98679.16;;;14.96;62.04
15489;BME280;7846;48.830;9.116;2023-02-18T01:18:15;98692.91;;;14.91;62.39
15489;BME280;7846;48.830;9.116;2023-02-18T01:20:42;98708.31;;;14.96;62.21
15489;BME280;7846;48.830;9.116;2023-02-18T01:23:08;98700.50;;;14.78;62.66
15489;BME280;7846;48.830;9.116;2023-02-18T01:25:34;98683.81;;;15.18;62.23
15489;BME280;7846;48.830;9.116;2023-02-18T01:28:00;98682.00;;;15.19;61.47
15489;BME280;7846;48.830;9.116;2023-02-18T01:30:25;98684.47;;;15.37;61.24
15489;BME280;7846;48.830;9.116;2023-02-18T01:32:51;98672.56;;;15.24;61.61
15489;BME280;7846;48.830;9.116;2023-02-18T01:35:18;98681.84;;;15.20;62.11
15489;BME280;7846;48.830;9.116;2023-02-18T01:37:45;98691.78;;;15.27;61.78
15489;BME280;7846;48.830;9.116;2023-02-18T01:40:16;98699.06;;;15.16;62.02
15489;BME280;7846;48.830;9.116;2023-02-18T01:42:42;98682.66;;;15.21;62.10
15489;BME280;7846;48.830;9.116;2023-02-18T01:50:45;98685.47;;;15.36;61.36
15489;BME280;7846;48.830;9.116;2023-02-18T01:53:35;98693.13;;;15.39;61.28
15489;BME280;7846;48.830;9.116;2023-02-18T01:56:05;98694.09;;;15.38;61.11
15489;BME280;7846;48.830;9.116;2023-02-18T01:58:33;98686.97;;;15.30;61.70
15489;BME280;7846;48.830;9.116;2023-02-18T02:00:58;98685.47;;;15.44;60.81
15489;BME280;7846;48.830;9.116;2023-02-18T02:03:24;98692.59;;;15.43;61.25
15489;BME280;7846;48.830;9.116;2023-02-18T02:05:49;98679.34;;;15.52;60.85
15489;BME280;7846;48.830;9.116;2023-02-18T02:08:15;98673.22;;;15.43;60.99
15489;BME280;7846;48.830;9.116;2023-02-18T02:11:10;98680.16;;;15.77;60.33
15489;BME280;7846;48.830;9.116;2023-02-18T02:14:06;98675.84;;;15.27;61.09
15489;BME280;7846;48.830;9.116;2023-02-18T02:17:05;98684.63;;;15.52;60.78
15489;BME280;7846;48.830;9.116;2023-02-18T02:20:00;98682.84;;;15.36;61.24
15489;BME280;7846;48.830;9.116;2023-02-18T02:22:45;98681.97;;;15.52;60.44
15489;BME280;7846;48.830;9.116;2023-02-18T02:28:58;98683.00;;;15.51;60.21
15489;BME280;7846;48.830;9.116;2023-02-18T02:31:50;98680.00;;;15.62;60.30
15489;BME280;7846;48.830;9.116;2023-02-18T02:37:11;98669.88;;;15.49;60.66
15489;BME280;7846;48.830;9.116;2023-02-18T02:42:35;98673.56;;;15.32;61.22
15489;BME280;7846;48.830;9.116;2023-02-18T02:45:24;98664.41;;;15.51;60.82
15489;BME280;7846;48.830;9.116;2023-02-18T02:48:01;98667.41;;;15.39;61.06
15489;BME280;7846;48.830;9.116;2023-02-18T02:50:45;98661.06;;;15.57;60.81
15489;BME280;7846;48.830;9.116;2023-02-18T02:53:23;98662.88;;;15.64;60.39
15489;BME280;7846;48.830;9.116;2023-02-18T02:55:50;98666.72;;;15.45;60.70
15489;BME280;7846;48.830;9.116;2023-02-18T02:58:18;98668.22;;;15.48;60.58
15489;BME280;7846;48.830;9.116;2023-02-18T03:01:04;98663.91;;;15.47;60.69
15489;BME280;7846;48.830;9.116;2023-02-18T03:09:32;98669.22;;;15.22;61.00
15489;BME280;7846;48.830;9.116;2023-02-18T03:12:11;98660.25;;;15.56;60.52
15489;BME280;7846;48.830;9.116;2023-02-18T03:14:46;98661.44;;;15.37;60.54
15489;BME280;7846;48.830;9.116;2023-02-18T03:17:24;98648.97;;;15.46;60.54
15489;BME280;7846;48.830;9.116;2023-02-18T03:20:02;98648.16;;;15.62;60.17
15489;BME280;7846;48.830;9.116;2023-02-18T03:22:32;98645.00;;;15.58;60.16
15489;BME280;7846;48.830;9.116;2023-02-18T03:25:02;98643.69;;;15.38;60.33
15489;BME280;7846;48.830;9.116;2023-02-18T03:30:23;98643.16;;;15.42;59.99
15489;BME280;7846;48.830;9.116;2023-02-18T03:32:52;98637.56;;;15.37;60.19
15489;BME280;7846;48.830;9.116;2023-02-18T03:35:20;98644.22;;;15.25;60.20
15489;BME280;7846;48.830;9.116;2023-02-18T03:41:04;98640.38;;;15.28;60.02
15489;BME280;7846;48.830;9.116;2023-02-18T03:43:31;98645.03;;;15.17;60.21
15489;BME280;7846;48.830;9.116;2023-02-18T03:45:56;98637.56;;;15.29;59.76
15489;BME280;7846;48.830;9.116;2023-02-18T03:48:25;98640.38;;;15.28;60.00
15489;BME280;7846;48.830;9.116;2023-02-18T03:50:50;98635.09;;;15.36;59.30
15489;BME280;7846;48.830;9.116;2023-02-18T03:53:17;98641.03;;;15.54;58.74
15489;BME280;7846;48.830;9.116;2023-02-18T03:55:42;98641.88;;;15.30;59.25
15489;BME280;7846;48.830;9.116;2023-02-18T03:58:07;98640.22;;;15.05;60.10
15489;BME280;7846;48.830;9.116;2023-02-18T04:00:33;98646.53;;;15.04;59.80
15489;BME280;7846;48.830;9.116;2023-02-18T04:02:58;98644.50;;;14.97;60.48
15489;BME280;7846;48.830;9.116;2023-02-18T04:05:25;98639.72;;;15.34;59.02
15489;BME280;7846;48.830;9.116;2023-02-18T04:07:50;98647.66;;;15.42;59.03
15489;BME280;7846;48.830;9.116;2023-02-18T04:10:16;98639.22;;;15.14;59.46
15489;BME280;7846;48.830;9.116;2023-02-18T04:12:41;98639.72;;;15.17;59.72
15489;BME280;7846;48.830;9.116;2023-02-18T04:15:07;98640.72;;;15.24;59.62
15489;BME280;7846;48.830;9.116;2023-02-18T04:17:32;98631.78;;;15.17;59.66
15489;BME280;7846;48.830;9.116;2023-02-18T04:19:58;98622.31;;;15.23;59.31
15489;BME280;7846;48.830;9.116;2023-02-18T04:22:23;98626.47;;;15.25;59.56
15489;BME280;7846;48.830;9.116;2023-02-18T04:24:49;98620.47;;;15.40;58.90
15489;BME280;7846;48.830;9.116;2023-02-18T04:27:14;98620.63;;;15.38;59.22
15489;BME280;7846;48.830;9.116;2023-02-18T04:29:40;98623.00;;;15.17;59.74
15489;BME280;7846;48.830;9.116;2023-02-18T04:32:05;98618.00;;;15.22;59.68
15489;BME280;7846;48.830;9.116;2023-02-18T04:34:31;98622.31;;;15.07;59.81
15489;BME280;7846;48.830;9.116;2023-02-18T04:36:58;98619.31;;;15.01;60.30
15489;BME280;7846;48.830;9.116;2023-02-18T04:39:23;98620.84;;;14.96;60.24
15489;BME280;7846;48.830;9.116;2023-02-18T04:41:49;98610.41;;;14.94;60.00
15489;BME280;7846;48.830;9.116;2023-02-18T04:44:14;98621.66;;;14.96;60.06
15489;BME280;7846;48.830;9.116;2023-02-18T04:46:39;98616.84;;;14.84;60.22
15489;BME280;7846;48.830;9.116;2023-02-18T04:49:06;98624.31;;;14.80;60.40
15489;BME280;7846;48.830;9.116;2023-02-18T04:51:32;98622.47;;;14.81;60.23
15489;BME280;7846;48.830;9.116;2023-02-18T04:53:57;98626.59;;;14.75;60.74
15489;BME280;7846;48.830;9.116;2023-02-18T04:56:24;98628.25;;;14.68;60.59
15489;BME280;7846;48.830;9.116;2023-02-18T04:58:49;98631.59;;;14.86;60.30
15489;BME280;7846;48.830;9.116;2023-02-18T05:01:15;98626.28;;;14.86;60.24
15489;BME280;7846;48.830;9.116;2023-02-18T05:03:41;98625.44;;;14.61;60.51
15489;BME280;7846;48.830;9.116;2023-02-18T05:06:06;98627.41;;;14.67;60.88
15489;BME280;7846;48.830;9.116;2023-02-18T05:08:31;98628.63;;;15.06;59.54
15489;BME280;7846;48.830;9.116;2023-02-18T05:10:57;98629.28;;;14.91;60.05
15489;BME280;7846;48.830;9.116;2023-02-18T05:13:22;98631.75;;;14.85;59.88
15489;BME280;7846;48.830;9.116;2023-02-18T05:15:48;98634.94;;;15.21;59.22
15489;BME280;7846;48.830;9.116;2023-02-18T05:18:13;98625.13;;;15.05;59.42
15489;BME280;7846;48.830;9.116;2023-02-18T05:20:39;98634.59;;;14.91;59.79
15489;BME280;7846;48.830;9.116;2023-02-18T05:23:04;98633.91;;;14.97;59.73
15489;BME280;7846;48.830;9.116;2023-02-18T05:25:30;98628.47;;;15.07;59.51
15489;BME280;7846;48.830;9.116;2023-02-18T05:27:56;98624.31;;;15.05;59.40
15489;BME280;7846;48.830;9.116;2023-02-18T05:30:21;98623.81;;;15.17;59.10
15489;BME280;7846;48.830;9.116;2023-02-18T05:32:48;98627.13;;;15.11;58.85
15489;BME280;7846;48.830;9.116;2023-02-18T05:35:13;98619.81;;;15.05;59.29
15489;BME280;7846;48.830;9.116;2023-02-18T05:37:39;98623.16;;;14.99;59.64
15489;BME280;7846;48.830;9.116;2023-02-18T05:40:05;98620.50;;;14.91;59.82
15489;BME280;7846;48.830;9.116;2023-02-18T05:42:31;98616.53;;;14.95;59.84
15489;BME280;7846;48.830;9.116;2023-02-18T05:44:57;98621.66;;;14.88;60.29
15489;BME280;7846;48.830;9.116;2023-02-18T05:47:23;98625.09;;;14.56;61.11
15489;BME280;7846;48.830;9.116;2023-02-18T05:49:48;98615.34;;;14.73;60.71
15489;BME280;7846;48.830;9.116;2023-02-18T05:52:14;98620.47;;;14.66;61.12
15489;BME280;7846;48.830;9.116;2023-02-18T05:54:40;98619.78;;;14.56;61.25
15489;BME280;7846;48.830;9.116;2023-02-18T05:57:05;98615.34;;;14.73;61.01
15489;BME280;7846;48.830;9.116;2023-02-18T05:59:31;98617.31;;;14.12;62.43
15489;BME280;7846;48.830;9.116;2023-02-18T06:01:56;98617.22;;;14.30;62.21
15489;BME280;7846;48.830;9.116;2023-02-18T06:04:21;98615.16;;;14.16;62.84
15489;BME280;7846;48.830;9.116;2023-02-18T06:06:47;98610.91;;;14.23;62.88
15489;BME280;7846;48.830;9.116;2023-02-18T06:09:12;98618.19;;;14.21;62.94
15489;BME280;7846;48.830;9.116;2023-02-18T06:11:38;98618.47;;;14.10;63.53
15489;BME280;7846;48.830;9.116;2023-02-18T06:14:03;98615.69;;;14.19;63.21
15489;BME280;7846;48.830;9.116;2023-02-18T06:16:30;98629.22;;;14.08;63.79
15489;BME280;7846;48.830;9.116;2023-02-18T06:18:55;98629.63;;;14.29;63.34
15489;BME280;7846;48.830;9.116;2023-02-18T06:21:20;98632.69;;;14.09;63.66
15489;BME280;7846;48.830;9.116;2023-02-18T06:23:46;98620.38;;;14.34;63.30
15489;BME280;7846;48.830;9.116;2023-02-18T06:26:12;98614.69;;;15.12;61.74
15489;BME280;7846;48.830;9.116;2023-02-18T06:28:37;98614.44;;;14.48;62.81
15489;BME280;7846;48.830;9.116;2023-02-18T06:31:02;98621.03;;;14.36;62.77
15489;BME280;7846;48.830;9.116;2023-02-18T06:33:28;98615.97;;;14.50;62.65
15489;BME280;7846;48.830;9.116;2023-02-18T06:36:05;98618.72;;;14.41;63.10
15489;BME280;7846;48.830;9.116;2023-02-18T06:38:37;98617.09;;;14.40;63.33
15489;BME280;7846;48.830;9.116;2023-02-18T06:41:03;98617.81;;;14.66;62.66
15489;BME280;7846;48.830;9.116;2023-02-18T06:43:28;98621.47;;;14.65;62.22
15489;BME280;7846;48.830;9.116;2023-02-18T06:45:55;98615.66;;;14.54;62.64
15489;BME280;7846;48.830;9.116;2023-02-18T06:48:21;98620.78;;;14.63;62.21
15489;BME280;7846;48.830;9.116;2023-02-18T06:50:47;98617.97;;;14.57;62.66
15489;BME280;7846;48.830;9.116;2023-02-18T06:53:12;98619.47;;;14.59;62.31
15489;BME280;7846;48.830;9.116;2023-02-18T06:55:38;98622.63;;;14.71;61.96
15489;BME280;7846;48.830;9.116;2023-02-18T06:58:03;98617.13;;;14.56;62.51
15489;BME280;7846;48.830;9.116;2023-02-18T07:00:29;98614.19;;;14.75;61.69
15489;BME280;7846;48.830;9.116;2023-02-18T07:02:54;98623.75;;;14.52;62.20
15489;BME280;7846;48.830;9.116;2023-02-18T07:05:21;98616.19;;;14.90;61.52
15489;BME280;7846;48.830;9.116;2023-02-18T07:07:46;98613.53;;;14.82;61.58
15489;BME280;7846;48.830;9.116;2023-02-18T07:10:12;98607.22;;;14.74;61.35
15489;BME280;7846;48.830;9.116;2023-02-18T07:12:37;98607.41;;;14.89;61.39
15489;BME280;7846;48.830;9.116;2023-02-18T07:15:03;98610.22;;;14.88;61.30
15489;BME280;7846;48.830;9.116;2023-02-18T07:17:28;98604.94;;;14.88;61.15
15489;BME280;7846;48.830;9.116;2023-02-18T07:19:54;98611.06;;;14.80;61.42
15489;BME280;7846;48.830;9.116;2023-02-18T07:22:21;98617.34;;;14.87;61.17
15489;BME280;7846;48.830;9.116;2023-02-18T07:24:51;98606.09;;;15.10;60.68
15489;BME280;7846;48.830;9.116;2023-02-18T07:27:16;98608.72;;;15.01;60.43
15489;BME280;7846;48.830;9.116;2023-02-18T07:29:42;98595.16;;;15.21;59.83
15489;BME280;7846;48.830;9.116;2023-02-18T07:32:11;98595.94;;;15.30;59.93
15489;BME280;7846;48.830;9.116;2023-02-18T07:34:36;98595.63;;;15.16;59.84
15489;BME280;7846;48.830;9.116;2023-02-18T07:37:02;98591.34;;;14.99;60.28
15489;BME280;7846;48.830;9.116;2023-02-18T07:39:38;98591.47;;;15.30;59.56
15489;BME280;7846;48.830;9.116;2023-02-18T07:42:04;98591.44;;;15.55;58.72
15489;BME280;7846;48.830;9.116;2023-02-18T07:44:29;98584.16;;;15.40;58.94
15489;BME280;7846;48.830;9.116;2023-02-18T07:46:55;98584.66;;;15.44;59.04
15489;BME280;7846;48.830;9.116;2023-02-18T07:49:20;98586.00;;;15.40;58.97
15489;BME280;7846;48.830;9.116;2023-02-18T07:51:47;98575.72;;;15.37;58.78
15489;BME280;7846;48.830;9.116;2023-02-18T07:54:13;98578.19;;;15.46;58.63
15489;BME280;7846;48.830;9.116;2023-02-18T07:56:38;98583.63;;;15.69;57.55
15489;BME280;7846;48.830;9.116;2023-02-18T07:59:04;98573.06;;;15.92;57.26
15489;BME280;7846;48.830;9.116;2023-02-18T08:01:29;98576.00;;;15.66;57.95
15489;BME280;7846;48.830;9.116;2023-02-18T08:03:54;98582.81;;;15.69;57.96
15489;BME280;7846;48.830;9.116;2023-02-18T08:06:33;98584.59;;;15.60;58.01
15489;BME280;7846;48.830;9.116;2023-02-18T08:08:59;98590.06;;;15.75;57.73
15489;BME280;7846;48.830;9.116;2023-02-18T08:11:24;98592.78;;;15.98;56.63
15489;BME280;7846;48.830;9.116;2023-02-18T08:13:50;98595.03;;;15.78;57.37
15489;BME280;7846;48.830;9.116;2023-02-18T08:16:17;98590.22;;;15.82;57.24
15489;BME280;7846;48.830;9.116;2023-02-18T08:18:42;98595.19;;;15.85;56.76
15489;BME280;7846;48.830;9.116;2023-02-18T08:21:08;98606.13;;;15.82;56.97
15489;BME280;7846;48.830;9.116;2023-02-18T08:23:33;98595.63;;;15.96;56.87
15489;BME280;7846;48.830;9.116;2023-02-18T08:25:59;98591.75;;;16.07;56.46
15489;BME280;7846;48.830;9.116;2023-02-18T08:28:24;98594.59;;;16.06;56.50
15489;BME280;7846;48.830;9.116;2023-02-18T08:30:51;98586.16;;;16.02;56.41
15489;BME280;7846;48.830;9.116;2023-02-18T08:33:18;98586.13;;;16.10;56.65
15489;BME280;7846;48.830;9.116;2023-02-18T08:35:46;98578.81;;;16.04;56.45
15489;BME280;7846;48.830;9.116;2023-02-18T08:38:12;98566.31;;;16.13;56.20
15489;BME280;7846;48.830;9.116;2023-02-18T08:40:38;98574.88;;;16.00;56.58
15489;BME280;7846;48.830;9.116;2023-02-18T08:43:05;98573.41;;;16.29;55.84
15489;BME280;7846;48.830;9.116;2023-02-18T08:45:30;98566.94;;;16.23;55.47
15489;BME280;7846;48.830;9.116;2023-02-18T08:47:56;98574.47;;;16.11;56.31
15489;BME280;7846;48.830;9.116;2023-02-18T08:50:21;98580.06;;;16.25;55.88
15489;BME280;7846;48.830;9.116;2023-02-18T08:52:50;98570.94;;;16.50;55.50
15489;BME280;7846;48.830;9.116;2023-02-18T08:55:16;98580.91;;;16.25;56.00
15489;BME280;7846;48.830;9.116;2023-02-18T08:57:44;98573.16;;;16.38;55.79
15489;BME280;7846;48.830;9.116;2023-02-18T09:00:10;98569.72;;;16.30;56.16
15489;BME280;7846;48.830;9.116;2023-02-18T09:02:37;98579.91;;;16.49;55.79
15489;BME280;7846;48.830;9.116;2023-02-18T09:05:03;98569.06;;;16.28;56.32
15489;BME280;7846;48.830;9.116;2023-02-18T09:07:28;98559.53;;;16.41;56.12
15489;BME280;7846;48.830;9.116;2023-02-18T09:09:55;98565.09;;;16.32;56.20
15489;BME280;7846;48.830;9.116;2023-02-18T09:12:20;98560.13;;;16.52;56.09
15489;BME280;7846;48.830;9.116;2023-02-18T09:14:46;98568.56;;;16.32;56.22
15489;BME280;7846;48.830;9.116;2023-02-18T09:17:12;98563.53;;;16.37;55.92
15489;BME280;7846;48.830;9.116;2023-02-18T09:19:38;98550.59;;;16.34;56.08
15489;BME280;7846;48.830;9.116;2023-02-18T09:22:04;98552.91;;;16.60;55.47
15489;BME280;7846;48.830;9.116;2023-02-18T09:24:30;98560.16;;;16.75;55.63
15489;BME280;7846;48.830;9.116;2023-02-18T09:26:56;98549.03;;;16.48;55.33
15489;BME280;7846;48.830;9.116;2023-02-18T09:29:22;98539.69;;;16.52;54.87
15489;BME280;7846;48.830;9.116;2023-02-18T09:31:47;98540.84;;;16.81;55.20
15489;BME280;7846;48.830;9.116;2023-02-18T09:34:12;98534.66;;;17.03;54.39
15489;BME280;7846;48.830;9.116;2023-02-18T09:36:38;98543.53;;;16.96;54.68
15489;BME280;7846;48.830;9.116;2023-02-18T09:39:04;98550.25;;;16.83;54.47
15489;BME280;7846;48.830;9.116;2023-02-18T09:41:37;98527.72;;;16.94;54.19
15489;BME280;7846;48.830;9.116;2023-02-18T09:44:17;98537.50;;;16.79;54.57
15489;BME280;7846;48.830;9.116;2023-02-18T09:49:27;98540.47;;;16.84;54.59
15489;BME280;7846;48.830;9.116;2023-02-18T09:51:54;98525.97;;;16.63;54.78
15489;BME280;7846;48.830;9.116;2023-02-18T09:54:21;98535.16;;;16.84;54.50
15489;BME280;7846;48.830;9.116;2023-02-18T09:56:47;98527.22;;;16.76;54.80
15489;BME280;7846;48.830;9.116;2023-02-18T09:59:16;98538.81;;;16.83;54.59
15489;BME280;7846;48.830;9.116;2023-02-18T10:01:44;98531.13;;;16.88;53.98
15489;BME280;7846;48.830;9.116;2023-02-18T10:04:29;98533.63;;;17.04;54.39
15489;BME280;7846;48.830;9.116;2023-02-18T10:06:56;98527.28;;;16.90;54.37
15489;BME280;7846;48.830;9.116;2023-02-18T10:09:42;98537.78;;;17.22;53.82
15489;BME280;7846;48.830;9.116;2023-02-18T10:12:15;98541.47;;;17.21;53.88
15489;BME280;7846;48.830;9.116;2023-02-18T10:14:44;98535.16;;;17.36;53.73
15489;BME280;7846;48.830;9.116;2023-02-18T10:17:13;98537.19;;;16.97;53.69
15489;BME280;7846;48.830;9.116;2023-02-18T10:19:42;98538.16;;;17.18;53.45
15489;BME280;7846;48.830;9.116;2023-02-18T10:22:10;98537.25;;;17.26;53.28
15489;BME280;7846;48.830;9.116;2023-02-18T10:27:05;98533.88;;;17.32;53.06
15489;BME280;7846;48.830;9.116;2023-02-18T10:29:33;98544.16;;;17.50;53.13
15489;BME280;7846;48.830;9.116;2023-02-18T10:32:23;98549.19;;;17.45;52.63
15489;BME280;7846;48.830;9.116;2023-02-18T10:34:56;98553.69;;;17.45;52.39
15489;BME280;7846;48.830;9.116;2023-02-18T10:40:43;98536.50;;;17.17;52.70
15489;BME280;7846;48.830;9.116;2023-02-18T10:43:16;98528.69;;;17.31;52.72
15489;BME280;7846;48.830;9.116;2023-02-18T10:51:13;98513.03;;;17.36;52.38
15489;BME280;7846;48.830;9.116;2023-02-18T10:53:41;98518.63;;;17.41;52.12
15489;BME280;7846;48.830;9.116;2023-02-18T10:57:01;98515.41;;;17.60;51.61
15489;BME280;7846;48.830;9.116;2023-02-18T10:59:23;98514.00;;;17.64;51.69
15489;BME280;7846;48.830;9.116;2023-02-18T11:02:10;98533.56;;;17.57;51.48
15489;BME280;7846;48.830;9.116;2023-02-18T11:04:39;98520.38;;;17.34;51.48
15489;BME280;7846;48.830;9.116;2023-02-18T11:07:14;98505.94;;;17.73;50.92
15489;BME280;7846;48.830;9.116;2023-02-18T11:09:46;98497.06;;;17.51;51.54
15489;BME280;7846;48.830;9.116;2023-02-18T11:12:25;98514.59;;;17.45;51.02
15489;BME280;7846;48.830;9.116;2023-02-18T11:17:42;98476.50;;;18.10;49.66
15489;BME280;7846;48.830;9.116;2023-02-18T11:22:49;98485.81;;;18.21;48.83
15489;BME280;7846;48.830;9.116;2023-02-18T11:25:23;98499.31;;;18.20;49.40
15489;BME280;7846;48.830;9.116;2023-02-18T11:27:56;98491.19;;;18.06;49.07
15489;BME280;7846;48.830;9.116;2023-02-18T11:30:24;98497.75;;;17.89;49.42
15489;BME280;7846;48.830;9.116;2023-02-18T11:32:55;98501.75;;;18.14;49.25
15489;BME280;7846;48.830;9.116;2023-02-18T11:35:24;98512.50;;;18.06;49.41
15489;BME280;7846;48.830;9.116;2023-02-18T11:37:50;98521.06;;;18.02;49.02
15489;BME280;7846;48.830;9.116;2023-02-18T11:40:21;98476.94;;;17.48;49.87
15489;BME280;7846;48.830;9.116;2023-02-18T11:42:47;98482.47;;;17.61;49.25
15489;BME280;7846;48.830;9.116;2023-02-18T11:45:31;98482.47;;;17.47;49.60
15489;BME280;7846;48.830;9.116;2023-02-18T11:48:15;98479.97;;;17.45;49.75
15489;BME280;7846;48.830;9.116;2023-02-18T11:50:43;98473.91;;;17.81;49.79
15489;BME280;7846;48.830;9.116;2023-02-18T11:53:25;98469.16;;;17.76;49.40
15489;BME280;7846;48.830;9.116;2023-02-18T11:56:00;98486.09;;;17.90;50.04
15489;BME280;7846;48.830;9.116;2023-02-18T11:58:35;98486.13;;;17.46;50.04
15489;BME280;7846;48.830;9.116;2023-02-18T12:01:03;98451.16;;;17.49;50.13
15489;BME280;7846;48.830;9.116;2023-02-18T12:03:41;98472.81;;;17.75;50.25
15489;BME280;7846;48.830;9.116;2023-02-18T12:06:37;98466.94;;;17.80;50.53
15489;BME280;7846;48.830;9.116;2023-02-18T12:09:08;98446.34;;;17.88;50.06
15489;BME280;7846;48.830;9.116;2023-02-18T12:11:42;98471.88;;;17.53;50.21
15489;BME280;7846;48.830;9.116;2023-02-18T12:14:14;98468.72;;;17.43;50.45
15489;BME280;7846;48.830;9.116;2023-02-18T12:17:02;98467.94;;;17.79;50.04
15489;BME280;7846;48.830;9.116;2023-02-18T12:19:53;98464.97;;;17.74;50.22
15489;BME280;7846;48.830;9.116;2023-02-18T12:22:44;98489.06;;;17.65;51.11
15489;BME280;7846;48.830;9.116;2023-02-18T12:25:21;98457.75;;;17.53;50.76
15489;BME280;7846;48.830;9.116;2023-02-18T12:27:59;98462.88;;;17.84;50.24
15489;BME280;7846;48.830;9.116;2023-02-18T12:36:19;98479.16;;;17.45;50.79
15489;BME280;7846;48.830;9.116;2023-02-18T12:39:11;98471.19;;;17.30;51.26
15489;BME280;7846;48.830;9.116;2023-02-18T12:53:01;98470.81;;;17.18;51.43
15489;BME280;7846;48.830;9.116;2023-02-18T12:55:51;98469.06;;;17.25;51.38
15489;BME280;7846;48.830;9.116;2023-02-18T12:58:47;98453.22;;;17.17;51.79
15489;BME280;7846;48.830;9.116;2023-02-18T13:01:46;98459.00;;;17.06;51.98
15489;BME280;7846;48.830;9.116;2023-02-18T13:04:40;98472.88;;;16.78;52.05
15489;BME280;7846;48.830;9.116;2023-02-18T13:07:35;98452.09;;;16.97;51.97
15489;BME280;7846;48.830;9.116;2023-02-18T13:13:00;98471.88;;;16.79;52.49
15489;BME280;7846;48.830;9.116;2023-02-18T13:15:37;98466.28;;;16.89;52.45
15489;BME280;7846;48.830;9.116;2023-02-18T13:18:10;98466.75;;;16.78;52.82
15489;BME280;7846;48.830;9.116;2023-02-18T13:20:41;98460.41;;;16.79;52.73
15489;BME280;7846;48.830;9.116;2023-02-18T13:23:15;98452.84;;;16.67;52.50
15489;BME280;7846;48.830;9.116;2023-02-18T13:25:41;98443.69;;;16.70;52.16
15489;BME280;7846;48.830;9.116;2023-02-18T13:28:20;98442.09;;;16.61;52.61
15489;BME280;7846;48.830;9.116;2023-02-18T13:30:56;98446.50;;;16.91;52.03
15489;BME280;7846;48.830;9.116;2023-02-18T13:33:34;98433.38;;;16.90;52.25
15489;BME280;7846;48.830;9.116;2023-02-18T13:36:16;98430.88;;;16.74;52.30
15489;BME280;7846;48.830;9.116;2023-02-18T13:39:03;98436.78;;;16.84;51.89
15489;BME280;7846;48.830;9.116;2023-02-18T13:41:38;98431.53;;;16.76;52.06
15489;BME280;7846;48.830;9.116;2023-02-18T13:44:14;98430.25;;;16.86;52.00
15489;BME280;7846;48.830;9.116;2023-02-18T13:46:58;98420.81;;;16.84;51.86
15489;BME280;7846;48.830;9.116;2023-02-18T13:49:35;98425.84;;;16.79;51.60
15489;BME280;7846;48.830;9.116;2023-02-18T13:52:02;98421.00;;;16.97;52.02
15489;BME280;7846;48.830;9.116;2023-02-18T13:54:33;98413.13;;;17.04;51.57
15489;BME280;7846;48.830;9.116;2023-02-18T13:57:14;98406.19;;;17.39;50.94
15489;BME280;7846;48.830;9.116;2023-02-18T13:59:42;98423.41;;;17.07;51.00
15489;BME280;7846;48.830;9.116;2023-02-18T14:04:48;98386.25;;;17.13;50.55
15489;BME280;7846;48.830;9.116;2023-02-18T14:09:44;98389.06;;;17.27;50.83
15489;BME280;7846;48.830;9.116;2023-02-18T14:12:38;98388.31;;;17.33;50.63
15489;BME280;7846;48.830;9.116;2023-02-18T14:25:50;98382.09;;;17.26;50.58
15489;BME280;7846;48.830;9.116;2023-02-18T14:33:41;98371.44;;;17.26;51.66
15489;BME280;7846;48.830;9.116;2023-02-18T14:36:26;98382.56;;;17.14;51.40
15489;BME280;7846;48.830;9.116;2023-02-18T14:42:00;98372.75;;;17.00;51.78
15489;BME280;7846;48.830;9.116;2023-02-18T14:44:46;98375.88;;;17.18;51.69
15489;BME280;7846;48.830;9.116;2023-02-18T14:50:11;98394.34;;;17.41;51.15
15489;BME280;7846;48.830;9.116;2023-02-18T14:52:41;98381.28;;;17.61;51.64
15489;BME280;7846;48.830;9.116;2023-02-18T14:55:17;98381.81;;;17.35;52.03
15489;BME280;7846;48.830;9.116;2023-02-18T14:57:50;98380.47;;;17.10;52.19